Here is the Quick Look data you requested

The Data originates at the National Weather Service, and is made available here by the UAlbany Department of Atmospheric and Environmental Sciences

Surface Observations

K1V4 150654Z AUTO 02/02 A3008 RMK AO1 SLP196 T00220017=
KBTV 150654Z 19012KT 10SM BKN045 OVC060 06/03 A3010 RMK AO2 SLP194 T00610028=
KDDH 150654Z AUTO 25004KT 10SM OVC065 08/04 A3016 RMK AO2 SLP219 T00780039=
KEFK 150655Z AUTO 19006KT 10SM OVC033 02/02 A3006 RMK AO2 T00210017=
KMPV 150651Z AUTO 18010KT 10SM OVC039 05/02 A3011 RMK AO2 SLP209 T00500022=
KMVL 150654Z AUTO 14004KT 10SM SCT055 BKN075 00/ A3008 RMK AO2 SLP196 T0000=
KRUT 150656Z AUTO 00000KT 10SM OVC020 07/04 A3016 RMK AO2 SLP234 T00720039 PNO
 $=
KVSF 150654Z AUTO 00000KT 5SM BR CLR M01/M01 A3016 RMK AO2 SLP219 T10111011=